createdAt,value
2018-11-07T00:01:55.286Z,93.11
2018-11-07T00:04:23.861Z,93.02
2018-11-07T00:06:52.342Z,92.85
2018-11-07T00:09:21.071Z,92.81
2018-11-07T00:11:49.606Z,92.88
2018-11-07T00:14:18.179Z,92.81
2018-11-07T00:16:46.859Z,92.62
2018-11-07T00:19:15.344Z,92.42
2018-11-07T00:21:44.222Z,92.39
2018-11-07T00:24:12.723Z,92.48
2018-11-07T00:26:41.371Z,92.49
2018-11-07T00:29:10.128Z,92.13
2018-11-07T00:31:38.675Z,92.32
2018-11-07T00:34:07.247Z,92.29
2018-11-07T00:36:35.723Z,92.21
2018-11-07T00:39:06.097Z,92.20
2018-11-07T00:41:34.577Z,92.11
2018-11-07T00:44:03.571Z,92.10
2018-11-07T00:46:32.206Z,91.97
2018-11-07T00:49:01.455Z,92.04
2018-11-07T00:51:30.144Z,91.78
2018-11-07T00:53:58.870Z,91.78
2018-11-07T00:56:27.334Z,92.00
2018-11-07T00:58:55.823Z,91.82
2018-11-07T01:01:24.623Z,91.88
2018-11-07T01:03:53.258Z,91.88
2018-11-07T01:06:22.079Z,91.72
2018-11-07T01:08:51.038Z,91.43
2018-11-07T01:11:19.629Z,91.82
2018-11-07T01:13:48.206Z,91.95
2018-11-07T01:16:16.815Z,91.73
2018-11-07T01:18:45.274Z,92.00
2018-11-07T01:21:13.755Z,91.95
2018-11-07T01:23:42.636Z,92.02
2018-11-07T01:26:11.220Z,92.33
2018-11-07T01:28:39.845Z,92.21
2018-11-07T01:31:08.371Z,92.28
2018-11-07T01:33:36.891Z,92.34
2018-11-07T01:36:05.655Z,92.51
2018-11-07T01:38:34.341Z,92.41
2018-11-07T01:41:02.998Z,92.46
2018-11-07T01:43:31.498Z,92.35
2018-11-07T01:46:00.298Z,92.37
2018-11-07T01:48:28.796Z,92.18
2018-11-07T01:50:57.420Z,92.50
2018-11-07T01:53:25.966Z,92.67
2018-11-07T01:55:54.475Z,92.46
2018-11-07T01:58:23.357Z,92.36
2018-11-07T02:00:51.894Z,92.72
2018-11-07T02:03:20.673Z,92.65
2018-11-07T02:05:49.200Z,92.58
2018-11-07T02:08:17.813Z,92.78
2018-11-07T02:10:46.302Z,92.66
2018-11-07T02:13:14.848Z,92.93
2018-11-07T02:15:43.627Z,92.78
2018-11-07T02:18:12.177Z,92.70
2018-11-07T02:20:40.987Z,92.74
2018-11-07T02:23:09.477Z,92.44
2018-11-07T02:25:38.043Z,92.91
2018-11-07T02:28:06.664Z,92.90
2018-11-07T02:30:35.183Z,93.00
2018-11-07T02:33:04.141Z,93.04
2018-11-07T02:35:32.614Z,92.89
2018-11-07T02:38:01.756Z,92.89
2018-11-07T02:40:30.344Z,93.02
2018-11-07T02:42:59.318Z,93.31
2018-11-07T02:45:27.843Z,93.30
2018-11-07T02:47:56.432Z,93.47
2018-11-07T02:50:24.934Z,93.38
2018-11-07T02:52:53.483Z,93.54
2018-11-07T02:55:22.299Z,93.25
2018-11-07T02:57:50.834Z,93.45
2018-11-07T03:00:19.775Z,93.22
2018-11-07T03:02:48.307Z,93.43
2018-11-07T03:05:16.957Z,93.33
2018-11-07T03:07:45.454Z,93.00
2018-11-07T03:10:14.225Z,93.14
2018-11-07T03:12:43.001Z,93.21
2018-11-07T03:15:11.562Z,93.31
2018-11-07T03:17:40.530Z,93.33
2018-11-07T03:20:10.759Z,93.21
2018-11-07T03:22:39.550Z,92.96
2018-11-07T03:25:08.023Z,93.36
2018-11-07T03:27:36.561Z,93.40
2018-11-07T03:30:06.302Z,93.56
2018-11-07T03:32:34.923Z,93.73
2018-11-07T03:35:03.571Z,93.95
2018-11-07T03:37:32.142Z,94.31
2018-11-07T03:40:00.935Z,94.19
2018-11-07T03:42:29.406Z,94.17
2018-11-07T03:44:58.312Z,94.16
2018-11-07T03:47:26.875Z,94.38
2018-11-07T03:49:55.492Z,94.19
2018-11-07T03:52:24.006Z,94.72
2018-11-07T03:54:52.494Z,94.71
2018-11-07T03:57:21.226Z,94.96
2018-11-07T03:59:49.809Z,94.98
2018-11-07T04:02:18.411Z,95.06
2018-11-07T04:04:46.879Z,95.08
2018-11-07T04:07:15.607Z,95.09
2018-11-07T04:09:44.105Z,95.34
2018-11-07T04:12:12.583Z,95.29
2018-11-07T04:14:41.308Z,95.80
2018-11-07T04:17:09.847Z,95.72
2018-11-07T04:19:38.883Z,95.65
2018-11-07T04:22:07.361Z,95.69
2018-11-07T04:24:36.148Z,95.55
2018-11-07T04:27:04.635Z,95.70
2018-11-07T04:29:33.294Z,95.27
2018-11-07T04:32:01.892Z,95.53
2018-11-07T04:34:30.377Z,95.67
2018-11-07T04:36:59.370Z,95.41
2018-11-07T04:39:27.853Z,95.37
2018-11-07T04:41:56.728Z,95.27
2018-11-07T04:44:25.278Z,95.37
2018-11-07T04:46:53.791Z,95.69
2018-11-07T04:49:22.387Z,95.40
2018-11-07T04:51:50.964Z,95.67
2018-11-07T04:54:19.731Z,95.83
2018-11-07T04:56:48.295Z,95.63
2018-11-07T04:59:17.102Z,95.52
2018-11-07T05:01:45.570Z,96.05
2018-11-07T05:04:14.119Z,95.80
2018-11-07T05:06:42.586Z,95.83
2018-11-07T05:09:11.066Z,95.63
2018-11-07T05:11:39.941Z,95.59
2018-11-07T05:14:08.512Z,95.59
2018-11-07T05:16:37.650Z,95.56
2018-11-07T05:19:06.251Z,95.49
2018-11-07T05:21:35.098Z,95.26
2018-11-07T05:24:03.686Z,95.48
2018-11-07T05:26:32.338Z,95.06
2018-11-07T05:29:00.855Z,95.04
2018-11-07T05:31:29.427Z,95.02
2018-11-07T05:33:58.462Z,94.93
2018-11-07T05:36:27.313Z,94.75
2018-11-07T05:38:56.139Z,94.71
2018-11-07T05:41:24.664Z,94.47
2018-11-07T05:43:53.558Z,94.54
2018-11-07T05:46:22.071Z,95.06
2018-11-07T05:48:50.621Z,94.87
2018-11-07T05:51:21.932Z,94.69
2018-11-07T05:53:50.487Z,94.80
2018-11-07T05:56:19.762Z,94.50
2018-11-07T05:58:48.403Z,94.70
2018-11-07T06:01:18.972Z,94.97
2018-11-07T06:03:47.470Z,94.96
2018-11-07T06:06:16.529Z,95.03
2018-11-07T06:08:45.027Z,95.10
2018-11-07T06:11:13.824Z,95.06
2018-11-07T06:13:42.399Z,94.88
2018-11-07T06:16:11.196Z,94.98
2018-11-07T06:18:39.776Z,95.05
2018-11-07T06:21:08.409Z,94.77
2018-11-07T06:23:36.951Z,94.97
2018-11-07T06:26:07.079Z,95.05
2018-11-07T06:28:35.719Z,95.06
2018-11-07T06:31:04.263Z,95.20
2018-11-07T06:33:33.037Z,94.81
2018-11-07T06:36:01.535Z,95.24
2018-11-07T06:38:30.468Z,95.13
2018-11-07T06:40:58.974Z,95.29
2018-11-07T06:43:27.505Z,95.57
2018-11-07T06:45:56.125Z,95.14
2018-11-07T06:48:24.648Z,95.54
2018-11-07T06:50:53.535Z,95.63
2018-11-07T06:53:22.139Z,95.65
2018-11-07T06:55:53.198Z,95.97
2018-11-07T06:58:25.371Z,95.90
2018-11-07T07:00:57.263Z,95.99
2018-11-07T07:03:29.267Z,96.10
2018-11-07T07:05:58.790Z,95.92
2018-11-07T07:08:30.831Z,95.72
2018-11-07T07:11:02.540Z,95.92
2018-11-07T07:13:55.098Z,95.81
2018-11-07T07:16:26.467Z,95.72
2018-11-07T07:19:01.889Z,95.59
2018-11-07T07:21:38.652Z,95.43
2018-11-07T07:24:08.000Z,95.62
2018-11-07T07:26:41.341Z,95.27
2018-11-07T07:29:13.831Z,95.41
2018-11-07T07:31:49.873Z,95.44
2018-11-07T07:34:22.231Z,95.52
2018-11-07T07:36:50.931Z,95.67
2018-11-07T07:39:19.516Z,95.59
2018-11-07T07:41:48.317Z,95.47
2018-11-07T07:44:16.840Z,95.62
2018-11-07T07:46:45.551Z,95.56
2018-11-07T07:49:14.841Z,95.50
2018-11-07T07:51:43.514Z,95.77
2018-11-07T07:54:12.051Z,95.79
2018-11-07T07:56:40.531Z,95.49
2018-11-07T07:59:09.508Z,95.65
2018-11-07T08:01:38.034Z,95.45
2018-11-07T08:04:06.829Z,95.85
2018-11-07T08:06:37.068Z,95.63
2018-11-07T08:09:08.715Z,95.70
2018-11-07T08:11:37.301Z,95.60
2018-11-07T08:14:06.262Z,95.46
2018-11-07T08:16:34.727Z,95.57
2018-11-07T08:19:03.608Z,95.78
2018-11-07T08:21:32.091Z,95.44
2018-11-07T08:24:00.711Z,95.46
2018-11-07T08:26:29.348Z,95.34
2018-11-07T08:28:57.981Z,95.36
2018-11-07T08:31:26.530Z,95.27
2018-11-07T08:33:55.040Z,95.25
2018-11-07T08:36:23.885Z,95.25
2018-11-07T08:38:52.478Z,95.00
2018-11-07T08:41:21.755Z,94.92
2018-11-07T08:43:50.375Z,94.59
2018-11-07T08:46:19.287Z,94.83
2018-11-07T08:48:47.827Z,94.64
2018-11-07T08:51:16.452Z,94.64
2018-11-07T08:53:45.138Z,94.46
2018-11-07T08:56:13.659Z,94.48
2018-11-07T08:58:42.721Z,94.63
2018-11-07T09:01:11.284Z,94.46
2018-11-07T09:03:39.798Z,94.19
2018-11-07T09:06:08.342Z,94.18
2018-11-07T09:08:36.857Z,94.16
2018-11-07T09:11:05.480Z,93.86
2018-11-07T09:13:34.062Z,93.80
2018-11-07T09:16:03.123Z,93.91
2018-11-07T09:18:31.634Z,93.48
2018-11-07T09:21:00.639Z,93.58
2018-11-07T09:23:29.142Z,93.48
2018-11-07T09:25:57.647Z,93.60
2018-11-07T09:28:26.180Z,93.59
2018-11-07T09:30:54.743Z,93.38
2018-11-07T09:33:23.649Z,93.26
2018-11-07T09:35:52.243Z,93.31
2018-11-07T09:38:21.235Z,93.24
2018-11-07T09:40:49.744Z,93.17
2018-11-07T09:43:18.471Z,93.16
2018-11-07T09:45:47.022Z,93.04
2018-11-07T09:48:15.708Z,93.02
2018-11-07T09:50:44.367Z,93.03
2018-11-07T09:53:12.890Z,93.12
2018-11-07T09:55:41.847Z,92.86
2018-11-07T09:58:10.496Z,92.69
2018-11-07T10:00:39.647Z,92.80
2018-11-07T10:03:08.126Z,92.86
2018-11-07T10:05:36.712Z,92.47
2018-11-07T10:08:05.750Z,92.14
2018-11-07T10:10:34.274Z,92.36
2018-11-07T10:13:03.001Z,92.34
2018-11-07T10:15:31.601Z,92.24
2018-11-07T10:18:00.736Z,92.25
2018-11-07T10:20:29.285Z,92.13
2018-11-07T10:22:58.040Z,91.76
2018-11-07T10:25:26.672Z,91.81
2018-11-07T10:27:55.648Z,91.85
2018-11-07T10:30:23.902Z,91.99
2018-11-07T10:32:52.603Z,91.64
2018-11-07T10:35:21.595Z,91.42
2018-11-07T10:37:50.284Z,91.68
2018-11-07T10:40:20.200Z,91.39
2018-11-07T10:42:48.862Z,91.01
2018-11-07T10:45:17.830Z,90.97
2018-11-07T10:47:47.144Z,91.07
2018-11-07T10:50:16.979Z,91.17
2018-11-07T10:52:46.063Z,91.33
2018-11-07T10:55:15.690Z,91.10
2018-11-07T10:57:44.359Z,90.82
2018-11-07T11:00:20.128Z,90.86
2018-11-07T11:02:53.827Z,90.86
2018-11-07T11:05:22.506Z,90.85
2018-11-07T11:07:51.305Z,91.16
2018-11-07T11:10:20.007Z,90.78
2018-11-07T11:12:48.753Z,90.71
2018-11-07T11:15:17.279Z,90.47
2018-11-07T11:17:45.963Z,90.48
2018-11-07T11:20:15.255Z,90.32
2018-11-07T11:22:43.779Z,90.36
2018-11-07T11:25:12.763Z,90.26
2018-11-07T11:27:41.344Z,90.24
2018-11-07T11:30:10.619Z,90.24
2018-11-07T11:32:39.687Z,90.04
2018-11-07T11:35:09.518Z,90.12
2018-11-07T11:37:38.035Z,89.84
2018-11-07T11:40:08.694Z,89.78
2018-11-07T11:42:37.223Z,89.69
2018-11-07T11:45:07.516Z,89.72
2018-11-07T11:47:36.099Z,89.58
2018-11-07T11:50:06.823Z,89.32
2018-11-07T11:52:35.340Z,89.15
2018-11-07T11:55:04.305Z,89.26
2018-11-07T11:57:33.298Z,89.29
2018-11-07T12:00:02.465Z,89.13
2018-11-07T12:02:30.761Z,89.00
2018-11-07T12:04:59.423Z,89.07
2018-11-07T12:07:27.939Z,88.68
2018-11-07T12:09:56.469Z,88.76
2018-11-07T12:12:25.256Z,88.72
2018-11-07T12:14:53.852Z,88.76
2018-11-07T12:17:22.894Z,88.68
2018-11-07T12:19:51.466Z,88.54
2018-11-07T12:22:20.832Z,88.66
2018-11-07T12:24:49.343Z,88.53
2018-11-07T12:27:17.982Z,88.53
2018-11-07T12:29:46.615Z,88.03
2018-11-07T12:32:15.150Z,88.50
2018-11-07T12:34:43.912Z,88.24
2018-11-07T12:37:12.414Z,88.30
2018-11-07T12:39:41.256Z,88.33
2018-11-07T12:42:09.837Z,88.52
2018-11-07T12:44:38.463Z,88.53
2018-11-07T12:47:07.310Z,88.09
2018-11-07T12:49:35.867Z,87.77
2018-11-07T12:52:05.081Z,88.16
2018-11-07T12:54:33.673Z,88.12
2018-11-07T12:57:02.806Z,88.24
2018-11-07T12:59:31.519Z,88.39
2018-11-07T13:02:01.091Z,88.25
2018-11-07T13:04:29.680Z,88.37
2018-11-07T13:06:58.763Z,88.25
2018-11-07T13:09:27.322Z,88.58
2018-11-07T13:11:55.931Z,88.39
2018-11-07T13:14:24.435Z,88.69
2018-11-07T13:16:52.967Z,88.46
2018-11-07T13:19:21.598Z,88.34
2018-11-07T13:21:50.099Z,88.67
2018-11-07T13:24:19.109Z,88.57
2018-11-07T13:26:47.743Z,89.09
2018-11-07T13:29:16.521Z,88.90
2018-11-07T13:31:45.146Z,89.10
2018-11-07T13:34:14.015Z,88.85
2018-11-07T13:36:43.040Z,88.92
2018-11-07T13:39:13.389Z,89.32
2018-11-07T13:41:42.366Z,89.21
2018-11-07T13:44:10.911Z,89.35
2018-11-07T13:46:39.636Z,89.29
2018-11-07T13:49:08.144Z,89.60
2018-11-07T13:51:37.029Z,89.70
2018-11-07T13:54:05.704Z,89.42
2018-11-07T13:56:34.529Z,89.59
2018-11-07T13:59:03.092Z,89.68
2018-11-07T14:01:31.605Z,89.89
2018-11-07T14:04:00.143Z,89.90
2018-11-07T14:06:28.635Z,90.10
2018-11-07T14:08:57.465Z,90.44
2018-11-07T14:11:25.991Z,90.37
2018-11-07T14:13:54.649Z,90.34
2018-11-07T14:16:23.406Z,90.50
2018-11-07T14:18:52.016Z,90.69
2018-11-07T14:21:20.506Z,91.21
2018-11-07T14:23:49.040Z,91.16
2018-11-07T14:26:18.011Z,91.56
2018-11-07T14:28:46.534Z,91.69
2018-11-07T14:31:15.360Z,91.69
2018-11-07T14:33:44.539Z,91.67
2018-11-07T14:36:13.375Z,91.96
2018-11-07T14:38:42.020Z,91.80
2018-11-07T14:41:10.668Z,92.10
2018-11-07T14:43:39.250Z,92.29
2018-11-07T14:46:07.819Z,92.47
2018-11-07T14:48:36.633Z,92.42
2018-11-07T14:51:05.718Z,93.25
2018-11-07T14:53:34.872Z,93.18
2018-11-07T14:56:03.285Z,93.31
2018-11-07T14:58:31.968Z,93.54
2018-11-07T15:01:00.507Z,93.52
2018-11-07T15:03:29.091Z,93.54
2018-11-07T15:05:57.659Z,93.51
2018-11-07T15:08:26.282Z,93.79
2018-11-07T15:10:54.947Z,93.42
2018-11-07T15:13:23.450Z,93.91
2018-11-07T15:15:52.477Z,94.20
2018-11-07T15:18:20.950Z,94.32
2018-11-07T15:20:49.528Z,94.17
2018-11-07T15:23:18.151Z,94.08
2018-11-07T15:25:46.769Z,94.37
2018-11-07T15:28:15.875Z,94.29
2018-11-07T15:30:44.474Z,94.44
2018-11-07T15:33:13.347Z,94.11
2018-11-07T15:35:41.905Z,94.26
2018-11-07T15:38:10.595Z,94.48
2018-11-07T15:40:39.104Z,94.43
2018-11-07T15:43:07.622Z,94.92
2018-11-07T15:45:36.147Z,94.57
2018-11-07T15:48:04.714Z,95.05
2018-11-07T15:50:38.739Z,94.77
2018-11-07T15:53:07.493Z,94.89
2018-11-07T15:55:36.095Z,94.92
2018-11-07T15:58:04.639Z,94.76
2018-11-07T16:00:33.352Z,94.81
2018-11-07T16:03:01.850Z,94.58
2018-11-07T16:05:30.915Z,94.71
2018-11-07T16:07:59.431Z,94.88
2018-11-07T16:10:28.601Z,94.66
2018-11-07T16:12:57.311Z,94.50
2018-11-07T16:15:26.096Z,94.42
2018-11-07T16:17:54.570Z,94.34
2018-11-07T16:20:23.139Z,94.52
2018-11-07T16:22:52.133Z,94.14
2018-11-07T16:25:20.732Z,94.26
2018-11-07T16:27:49.834Z,94.15
2018-11-07T16:30:19.737Z,94.59
2018-11-07T16:32:48.731Z,94.39
2018-11-07T16:35:17.329Z,94.30
2018-11-07T16:37:46.335Z,94.34
2018-11-07T16:40:16.366Z,94.25
2018-11-07T16:42:45.640Z,94.45
2018-11-07T16:45:15.132Z,94.63
2018-11-07T16:47:44.059Z,94.65
2018-11-07T16:50:13.806Z,94.66
2018-11-07T16:52:42.532Z,94.47
2018-11-07T16:55:11.139Z,94.49
2018-11-07T16:57:40.011Z,94.63
2018-11-07T17:00:12.531Z,94.56
2018-11-07T17:02:41.715Z,94.38
2018-11-07T17:05:11.061Z,94.71
2018-11-07T17:07:40.269Z,94.67
2018-11-07T17:10:09.505Z,94.87
2018-11-07T17:12:38.110Z,94.86
2018-11-07T17:15:06.907Z,95.15
2018-11-07T17:17:35.471Z,95.01
2018-11-07T17:20:04.071Z,94.94
2018-11-07T17:22:32.619Z,94.68
2018-11-07T17:25:01.683Z,94.84
2018-11-07T17:27:30.178Z,94.85
2018-11-07T17:29:58.923Z,94.92
2018-11-07T17:32:27.432Z,94.94
2018-11-07T17:34:55.974Z,94.84
2018-11-07T17:37:24.481Z,95.35
2018-11-07T17:39:52.990Z,95.20
2018-11-07T17:42:21.952Z,94.86
2018-11-07T17:44:50.460Z,94.77
2018-11-07T17:47:19.424Z,94.97
2018-11-07T17:49:48.013Z,94.72
2018-11-07T17:52:16.653Z,94.77
2018-11-07T17:54:45.207Z,95.08
2018-11-07T17:57:14.135Z,94.91
2018-11-07T17:59:42.952Z,94.91
2018-11-07T18:02:11.507Z,95.04
2018-11-07T18:04:40.743Z,95.17
2018-11-07T18:07:09.231Z,95.25
2018-11-07T18:09:37.948Z,94.85
2018-11-07T18:12:06.705Z,95.15
2018-11-07T18:14:35.739Z,95.15
2018-11-07T18:17:04.315Z,95.11
2018-11-07T18:19:33.004Z,95.27
2018-11-07T18:22:01.900Z,95.63
2018-11-07T18:24:30.467Z,95.75
2018-11-07T18:27:04.287Z,95.32
2018-11-07T18:29:34.160Z,95.53
2018-11-07T18:32:03.637Z,95.57
2018-11-07T18:34:35.343Z,95.48
2018-11-07T18:37:04.727Z,95.52
2018-11-07T18:39:34.412Z,95.59
2018-11-07T18:42:03.898Z,95.86
2018-11-07T18:44:32.933Z,95.43
2018-11-07T18:47:01.328Z,95.65
2018-11-07T18:49:30.616Z,95.78
2018-11-07T18:51:59.164Z,95.59
2018-11-07T18:54:27.674Z,95.90
2018-11-07T18:56:56.211Z,95.90
2018-11-07T18:59:24.846Z,96.15
2018-11-07T19:01:54.748Z,96.09
2018-11-07T19:04:23.260Z,95.98
2018-11-07T19:06:52.022Z,96.00
2018-11-07T19:09:20.496Z,96.31
2018-11-07T19:11:49.416Z,95.99
2018-11-07T19:14:17.955Z,96.32
2018-11-07T19:16:46.624Z,96.36
2018-11-07T19:19:15.252Z,96.22
2018-11-07T19:21:45.835Z,95.92
2018-11-07T19:24:14.359Z,96.21
2018-11-07T19:26:42.922Z,96.16
2018-11-07T19:29:11.495Z,96.21
2018-11-07T19:31:40.133Z,96.22
2018-11-07T19:34:09.029Z,96.02
2018-11-07T19:36:37.550Z,96.12
2018-11-07T19:39:08.355Z,95.88
2018-11-07T19:41:37.334Z,95.89
2018-11-07T19:44:06.404Z,95.66
2018-11-07T19:46:35.000Z,95.64
2018-11-07T19:49:03.565Z,95.79
2018-11-07T19:51:32.223Z,95.72
2018-11-07T19:54:00.983Z,95.85
2018-11-07T19:56:29.743Z,95.79
2018-11-07T19:58:58.368Z,95.60
2018-11-07T20:01:27.372Z,95.34
2018-11-07T20:03:55.854Z,95.39
2018-11-07T20:06:24.709Z,95.53
2018-11-07T20:08:53.229Z,95.23
2018-11-07T20:11:21.815Z,95.31
2018-11-07T20:13:50.317Z,95.27
2018-11-07T20:16:18.853Z,95.29
2018-11-07T20:18:47.652Z,95.29
2018-11-07T20:21:16.213Z,94.98
2018-11-07T20:23:45.319Z,95.03
2018-11-07T20:26:13.869Z,94.80
2018-11-07T20:28:42.796Z,94.93
2018-11-07T20:31:11.526Z,94.85
2018-11-07T20:33:42.951Z,94.90
2018-11-07T20:36:11.626Z,94.77
2018-11-07T20:38:40.566Z,94.48
2018-11-07T20:41:09.087Z,94.79
2018-11-07T20:43:37.596Z,94.59
2018-11-07T20:46:06.473Z,94.72
2018-11-07T20:48:34.979Z,94.64
2018-11-07T20:51:03.647Z,94.68
2018-11-07T20:53:32.173Z,94.78
2018-11-07T20:56:01.112Z,94.76
2018-11-07T20:58:29.620Z,94.68
2018-11-07T21:00:58.471Z,94.67
2018-11-07T21:03:27.162Z,94.43
2018-11-07T21:05:55.783Z,94.60
2018-11-07T21:08:24.479Z,94.46
2018-11-07T21:10:52.960Z,94.44
2018-11-07T21:13:21.870Z,94.43
2018-11-07T21:15:50.331Z,94.54
2018-11-07T21:18:19.166Z,94.45
2018-11-07T21:20:47.650Z,94.51
2018-11-07T21:23:16.286Z,94.58
2018-11-07T21:25:44.791Z,94.39
2018-11-07T21:28:13.386Z,94.24
2018-11-07T21:30:42.307Z,94.13
2018-11-07T21:33:10.879Z,94.22
2018-11-07T21:35:39.657Z,94.25
2018-11-07T21:38:08.172Z,94.32
2018-11-07T21:40:36.755Z,93.89
2018-11-07T21:43:05.446Z,94.18
2018-11-07T21:45:34.070Z,94.38
2018-11-07T21:48:03.128Z,94.08
2018-11-07T21:50:31.666Z,94.09
2018-11-07T21:53:00.478Z,94.28
2018-11-07T21:55:28.995Z,94.09
2018-11-07T21:57:57.570Z,94.07
2018-11-07T22:00:26.110Z,93.93
2018-11-07T22:02:54.681Z,94.05
2018-11-07T22:05:23.282Z,94.00
2018-11-07T22:07:51.858Z,93.84
2018-11-07T22:10:20.726Z,94.17
2018-11-07T22:12:49.315Z,94.08
2018-11-07T22:15:18.083Z,94.06
2018-11-07T22:17:46.560Z,94.00
2018-11-07T22:20:19.982Z,93.95
2018-11-07T22:22:48.578Z,94.04
2018-11-07T22:25:17.614Z,93.95
2018-11-07T22:27:46.175Z,94.07
2018-11-07T22:30:16.084Z,94.03
2018-11-07T22:32:44.667Z,93.98
2018-11-07T22:35:14.798Z,94.01
2018-11-07T22:37:43.915Z,93.98
2018-11-07T22:40:14.639Z,93.93
2018-11-07T22:42:43.450Z,94.00
2018-11-07T22:45:12.929Z,94.07
2018-11-07T22:47:41.417Z,94.13
2018-11-07T22:50:11.976Z,94.03
2018-11-07T22:52:41.198Z,94.29
2018-11-07T22:55:10.164Z,94.04
2018-11-07T22:57:39.159Z,93.95
2018-11-07T23:00:20.644Z,93.94
2018-11-07T23:02:50.684Z,94.04
2018-11-07T23:05:19.278Z,94.02
2018-11-07T23:07:48.212Z,93.66
2018-11-07T23:10:16.804Z,94.01
2018-11-07T23:12:45.733Z,94.18
2018-11-07T23:15:19.734Z,94.03
2018-11-07T23:17:48.244Z,94.16
2018-11-07T23:20:16.937Z,94.12
2018-11-07T23:22:45.584Z,94.18
2018-11-07T23:25:14.047Z,94.19
2018-11-07T23:27:42.703Z,94.01
2018-11-07T23:30:11.343Z,94.15
2018-11-07T23:32:40.139Z,94.08
2018-11-07T23:35:08.669Z,94.02
2018-11-07T23:37:37.503Z,93.93
2018-11-07T23:40:06.700Z,93.95
2018-11-07T23:42:35.295Z,94.11
2018-11-07T23:45:04.212Z,93.95
2018-11-07T23:47:32.789Z,94.10
2018-11-07T23:50:01.644Z,94.10
2018-11-07T23:52:35.697Z,94.28
2018-11-07T23:55:04.251Z,94.23
2018-11-07T23:57:32.792Z,94.06
